Time;durP1;ratioP1;P1;durP2;ratioP2;P2;SDS_P1;SDS_P2;PMS_P1;PMS_P2;Temp;Humidity;BMP_temperature;BMP_pressure;BME280_temperature;BME280_humidity;BME280_pressure;Samples;Min_cycle;Max_cycle;Signal;HPM_P1;HPM_P2
2021/11/27 00:00:28;;;;;;;13.70;6.78;;;6.00;94.50;;;;;;5050860;28;20458;-72
2021/11/27 00:02:54;;;;;;;13.55;6.93;;;6.00;94.40;;;;;;5050850;28;20460;-71
2021/11/27 00:05:22;;;;;;;14.27;6.82;;;6.00;94.30;;;;;;5051439;28;20021;-72
2021/11/27 00:07:48;;;;;;;14.15;6.50;;;6.00;94.30;;;;;;5050915;28;20076;-71
2021/11/27 00:10:17;;;;;;;14.70;7.07;;;6.00;94.30;;;;;;5050980;28;20086;-73
2021/11/27 00:12:45;;;;;;;12.35;7.00;;;6.00;94.30;;;;;;5050764;28;20092;-71
2021/11/27 00:15:11;;;;;;;17.42;7.40;;;6.00;94.30;;;;;;5050608;28;20355;-71
2021/11/27 00:17:38;;;;;;;11.65;6.40;;;6.00;94.30;;;;;;5051524;28;20025;-71
2021/11/27 00:20:07;;;;;;;18.13;7.20;;;6.10;94.40;;;;;;5049505;28;20039;-71
2021/11/27 00:22:33;;;;;;;10.73;6.82;;;6.10;94.40;;;;;;5050630;28;20107;-70
2021/11/27 00:24:59;;;;;;;13.65;6.97;;;6.10;94.50;;;;;;5050721;28;20033;-71
2021/11/27 00:27:26;;;;;;;13.48;6.20;;;6.10;94.60;;;;;;5049521;28;20044;-70
2021/11/27 00:29:52;;;;;;;13.80;6.63;;;6.10;94.60;;;;;;5051337;28;20021;-70
2021/11/27 00:32:18;;;;;;;12.80;6.57;;;6.10;94.70;;;;;;5050588;28;20053;-72
2021/11/27 00:34:43;;;;;;;10.57;6.03;;;6.20;94.60;;;;;;5050722;28;20044;-72
2021/11/27 00:37:09;;;;;;;14.10;6.55;;;6.30;94.70;;;;;;5050412;28;20390;-72
2021/11/27 00:39:35;;;;;;;11.43;6.40;;;6.20;94.60;;;;;;5050688;28;20125;-72
2021/11/27 00:42:01;;;;;;;15.30;6.72;;;6.20;94.60;;;;;;5050427;28;20107;-72
2021/11/27 00:44:26;;;;;;;9.63;5.55;;;6.20;94.60;;;;;;5050902;28;20025;-71
2021/11/27 00:46:53;;;;;;;11.82;5.95;;;6.10;94.60;;;;;;5052899;28;20513;-71
2021/11/27 00:49:19;;;;;;;13.20;7.05;;;6.00;94.50;;;;;;5054366;28;20037;-71
2021/11/27 00:51:44;;;;;;;10.75;6.15;;;6.10;94.60;;;;;;5054359;28;20040;-71
2021/11/27 00:54:11;;;;;;;11.73;6.75;;;6.10;94.50;;;;;;5054390;28;20024;-71
2021/11/27 00:56:37;;;;;;;12.27;6.65;;;6.20;94.50;;;;;;5054630;28;20040;-71
2021/11/27 00:59:02;;;;;;;10.48;5.75;;;6.20;94.50;;;;;;5054257;28;20036;-71
2021/11/27 01:01:31;;;;;;;12.98;6.75;;;6.20;94.50;;;;;;5054114;28;20029;-71
2021/11/27 01:03:57;;;;;;;15.30;6.75;;;6.20;94.50;;;;;;5054020;28;20037;-70
2021/11/27 01:06:26;;;;;;;10.48;5.97;;;6.20;94.40;;;;;;5054036;28;20131;-71
2021/11/27 01:08:55;;;;;;;11.90;6.32;;;6.10;94.40;;;;;;5054250;28;20050;-71
2021/11/27 01:11:28;;;;;;;12.60;5.50;;;6.20;94.40;;;;;;5053968;28;20044;-71
2021/11/27 01:13:58;;;;;;;11.02;5.95;;;6.10;94.40;;;;;;5053773;28;20041;-71
2021/11/27 01:16:26;;;;;;;12.35;5.88;;;6.20;94.50;;;;;;5053995;28;20041;-72
2021/11/27 01:18:52;;;;;;;12.82;6.13;;;6.30;94.50;;;;;;5053759;28;20041;-71
2021/11/27 01:21:23;;;;;;;14.07;6.28;;;6.20;94.40;;;;;;5052553;28;20033;-71
2021/11/27 01:23:50;;;;;;;10.27;6.00;;;6.20;94.50;;;;;;5054276;28;20362;-71
2021/11/27 01:26:16;;;;;;;10.80;5.40;;;6.00;94.70;;;;;;5053781;28;20091;-71
2021/11/27 01:28:42;;;;;;;12.32;5.68;;;6.00;94.90;;;;;;5053830;28;20032;-72
2021/11/27 01:31:09;;;;;;;9.68;5.57;;;6.00;95.00;;;;;;5052188;28;20056;-71
2021/11/27 01:33:35;;;;;;;9.23;4.95;;;6.00;95.30;;;;;;5053440;28;20025;-71
2021/11/27 01:36:02;;;;;;;12.93;5.28;;;5.90;95.20;;;;;;5053724;28;20079;-71
2021/11/27 01:38:28;;;;;;;13.60;5.35;;;5.90;95.30;;;;;;5053874;28;20028;-72
2021/11/27 01:40:55;;;;;;;12.00;5.65;;;6.00;95.40;;;;;;5053585;28;20037;-72
2021/11/27 01:43:21;;;;;;;11.82;5.97;;;6.00;95.70;;;;;;5053231;28;20507;-71
2021/11/27 01:45:48;;;;;;;10.02;5.68;;;6.00;95.50;;;;;;5053419;28;20548;-71
2021/11/27 01:48:16;;;;;;;10.23;5.47;;;6.00;95.40;;;;;;5053480;28;20599;-71
2021/11/27 01:50:54;;;;;;;10.63;5.30;;;6.10;95.50;;;;;;5053796;28;20017;-71
2021/11/27 01:53:22;;;;;;;12.07;6.03;;;6.20;95.50;;;;;;5053306;28;20172;-71
2021/11/27 01:55:54;;;;;;;13.00;5.28;;;6.00;95.60;;;;;;5053313;28;20037;-72
2021/11/27 01:58:21;;;;;;;8.55;5.00;;;6.00;95.60;;;;;;5052944;28;20037;-71
2021/11/27 02:00:58;;;;;;;11.98;4.93;;;5.90;95.60;;;;;;5053270;28;20432;-72
2021/11/27 02:03:25;;;;;;;9.18;4.75;;;6.00;95.80;;;;;;5053248;28;20033;-71
2021/11/27 02:05:50;;;;;;;10.85;5.15;;;5.90;95.60;;;;;;5053431;28;20111;-72
2021/11/27 02:08:17;;;;;;;8.30;4.63;;;5.90;95.60;;;;;;5052063;28;20565;-71
2021/11/27 02:10:44;;;;;;;7.78;4.40;;;5.90;95.60;;;;;;5052995;28;20025;-71
2021/11/27 02:13:11;;;;;;;9.90;5.40;;;5.90;95.70;;;;;;5053063;28;20531;-72
2021/11/27 02:15:37;;;;;;;7.78;4.55;;;5.90;95.70;;;;;;5052760;28;20070;-71
2021/11/27 02:18:03;;;;;;;8.50;4.90;;;5.90;95.60;;;;;;5053063;28;20092;-71
2021/11/27 02:20:38;;;;;;;12.52;5.50;;;6.00;95.60;;;;;;5053291;28;20446;-71
2021/11/27 02:23:04;;;;;;;8.18;4.18;;;6.00;95.50;;;;;;5052962;28;20032;-72
2021/11/27 02:25:31;;;;;;;11.93;4.25;;;6.00;95.50;;;;;;5052545;28;20116;-72
2021/11/27 02:27:57;;;;;;;8.93;4.40;;;5.90;95.40;;;;;;5052934;28;20047;-72
2021/11/27 02:30:24;;;;;;;9.75;4.90;;;6.00;95.40;;;;;;5052546;28;20063;-72
2021/11/27 02:32:51;;;;;;;7.60;3.90;;;6.00;95.40;;;;;;5053125;28;20036;-71
2021/11/27 02:35:17;;;;;;;8.88;4.43;;;6.10;95.40;;;;;;5055853;28;20037;-71
2021/11/27 02:37:44;;;;;;;6.88;3.90;;;6.00;95.40;;;;;;5072399;28;20086;-72
2021/11/27 02:40:11;;;;;;;10.05;4.82;;;6.00;95.30;;;;;;5072382;28;20036;-72
2021/11/27 02:42:37;;;;;;;6.32;3.80;;;6.10;95.40;;;;;;5072329;28;20024;-72
2021/11/27 02:45:06;;;;;;;6.88;4.28;;;6.10;95.20;;;;;;5072176;28;20036;-72
2021/11/27 02:47:31;;;;;;;9.43;4.40;;;6.10;95.30;;;;;;5072537;28;20511;-72
2021/11/27 02:49:59;;;;;;;9.63;4.53;;;6.10;95.20;;;;;;5072169;28;20036;-71
2021/11/27 02:52:26;;;;;;;7.72;4.28;;;6.10;95.20;;;;;;5070977;28;20048;-71
2021/11/27 02:54:52;;;;;;;7.00;3.97;;;6.10;95.30;;;;;;5071017;28;20497;-70
2021/11/27 02:57:18;;;;;;;7.20;3.70;;;6.10;95.30;;;;;;5072000;28;20314;-71
2021/11/27 02:59:44;;;;;;;5.05;3.28;;;6.00;95.10;;;;;;5071368;28;20035;-72
2021/11/27 03:02:11;;;;;;;8.05;3.80;;;6.10;95.30;;;;;;5071934;28;20422;-72
2021/11/27 03:04:37;;;;;;;8.23;3.70;;;6.00;95.30;;;;;;5071767;28;20032;-72
2021/11/27 03:07:04;;;;;;;7.38;3.95;;;6.10;95.30;;;;;;5072199;28;20025;-71
2021/11/27 03:09:31;;;;;;;5.18;2.92;;;6.10;95.30;;;;;;5071202;28;20025;-72
2021/11/27 03:11:57;;;;;;;6.50;3.45;;;6.10;95.20;;;;;;5071788;28;20442;-71
2021/11/27 03:14:26;;;;;;;7.93;3.90;;;6.10;95.20;;;;;;5072178;28;20035;-72
2021/11/27 03:16:52;;;;;;;;;;;6.10;95.10;;;;;;5072349;28;20059;-72
2021/11/27 03:19:18;;;;;;;6.03;3.60;;;6.20;95.20;;;;;;5071600;28;19927;-72
2021/11/27 03:21:44;;;;;;;6.03;3.13;;;6.10;95.10;;;;;;5070710;28;20451;-72
2021/11/27 03:24:10;;;;;;;6.20;3.47;;;6.10;95.10;;;;;;5071662;28;20021;-72
2021/11/27 03:26:37;;;;;;;7.80;3.55;;;6.20;95.20;;;;;;5072163;28;20028;-72
2021/11/27 03:29:03;;;;;;;6.30;3.67;;;6.10;95.20;;;;;;5071794;28;20465;-72
2021/11/27 03:31:29;;;;;;;5.30;2.90;;;6.10;95.30;;;;;;5071323;28;20055;-72
2021/11/27 03:33:54;;;;;;;5.93;3.28;;;6.10;95.20;;;;;;5070196;28;20119;-71
2021/11/27 03:36:20;;;;;;;6.68;3.53;;;6.10;95.20;;;;;;5071342;28;20025;-71
2021/11/27 03:38:46;;;;;;;8.60;3.67;;;6.10;95.20;;;;;;5071713;28;20476;-71
2021/11/27 03:41:13;;;;;;;7.32;3.55;;;6.10;95.20;;;;;;5071291;28;20044;-71
2021/11/27 03:43:40;;;;;;;5.03;2.90;;;6.10;95.00;;;;;;5071110;28;20108;-71
2021/11/27 03:46:07;;;;;;;9.68;3.35;;;6.20;95.00;;;;;;5070202;28;20087;-70
2021/11/27 03:48:35;;;;;;;6.10;3.47;;;6.20;95.00;;;;;;5071126;28;20021;-71
2021/11/27 03:51:05;;;;;;;4.47;3.35;;;6.10;95.00;;;;;;5071245;28;20021;-70
2021/11/27 03:53:34;;;;;;;6.78;3.95;;;6.20;95.10;;;;;;5071528;28;20059;-71
2021/11/27 03:56:03;;;;;;;5.35;3.50;;;6.20;95.10;;;;;;5070996;28;20032;-72
2021/11/27 03:58:29;;;;;;;6.80;3.40;;;6.20;95.00;;;;;;5070892;28;20426;-70
2021/11/27 04:00:56;;;;;;;7.78;3.83;;;6.20;95.00;;;;;;5070974;28;20126;-71
2021/11/27 04:03:23;;;;;;;5.57;3.50;;;6.20;95.00;;;;;;5071015;28;20055;-71
2021/11/27 04:05:53;;;;;;;6.33;3.40;;;6.20;94.90;;;;;;5071271;28;20016;-71
2021/11/27 04:08:19;;;;;;;6.88;3.90;;;6.20;95.00;;;;;;5069576;28;20308;-71
2021/11/27 04:10:46;;;;;;;5.80;3.42;;;6.20;95.00;;;;;;5070721;28;20461;-70
2021/11/27 04:13:12;;;;;;;6.00;3.63;;;6.20;95.00;;;;;;5069629;28;20033;-71
2021/11/27 04:15:38;;;;;;;5.72;3.67;;;6.20;94.90;;;;;;5070292;28;20033;-71
2021/11/27 04:18:03;;;;;;;5.40;3.20;;;6.20;94.90;;;;;;5069731;28;20037;-70
2021/11/27 04:20:30;;;;;;;6.53;3.78;;;6.30;94.80;;;;;;5071223;28;20111;-70
2021/11/27 04:22:56;;;;;;;6.40;3.33;;;6.30;94.80;;;;;;5069808;28;20033;-71
2021/11/27 04:25:22;;;;;;;6.57;3.42;;;6.20;94.80;;;;;;5070690;28;20119;-71
2021/11/27 04:27:48;;;;;;;4.05;3.03;;;6.30;94.80;;;;;;5070453;28;20179;-71
2021/11/27 04:30:21;;;;;;;6.05;3.20;;;6.30;94.80;;;;;;5070444;28;20120;-71
2021/11/27 04:32:48;;;;;;;5.13;3.53;;;6.30;94.70;;;;;;5070962;28;20054;-71
2021/11/27 04:35:14;;;;;;;4.13;2.85;;;6.20;94.60;;;;;;5070448;28;20033;-71
2021/11/27 04:37:40;;;;;;;5.90;3.13;;;6.30;94.70;;;;;;5069513;28;20025;-71
2021/11/27 04:40:06;;;;;;;8.57;3.53;;;6.30;94.70;;;;;;5070095;28;20128;-70
2021/11/27 04:42:33;;;;;;;5.82;3.42;;;6.30;94.70;;;;;;5070520;28;20508;-71
2021/11/27 04:44:58;;;;;;;4.88;3.05;;;6.30;94.70;;;;;;5069425;28;20335;-71
2021/11/27 04:47:27;;;;;;;5.47;3.15;;;6.30;94.70;;;;;;5071050;28;20032;-71
2021/11/27 04:49:52;;;;;;;5.18;3.15;;;6.40;94.50;;;;;;5070476;28;20035;-70
2021/11/27 04:52:18;;;;;;;5.75;3.35;;;6.30;94.40;;;;;;5070320;28;20024;-71
2021/11/27 04:54:44;;;;;;;6.35;3.00;;;6.40;94.50;;;;;;5070207;28;20102;-70
2021/11/27 04:57:09;;;;;;;3.30;2.70;;;6.30;94.40;;;;;;5070154;28;20021;-70
2021/11/27 04:59:35;;;;;;;5.20;3.30;;;6.40;94.40;;;;;;5070861;28;20029;-70
2021/11/27 05:02:02;;;;;;;5.72;2.97;;;6.40;94.40;;;;;;5070223;28;20036;-71
2021/11/27 05:04:29;;;;;;;5.82;3.65;;;6.40;94.40;;;;;;5070243;28;20044;-70
2021/11/27 05:06:55;;;;;;;4.13;2.90;;;6.40;94.30;;;;;;5070170;28;20033;-70
2021/11/27 05:09:22;;;;;;;5.70;2.80;;;6.40;94.30;;;;;;5070102;28;20723;-70
2021/11/27 05:11:47;;;;;;;4.90;2.90;;;6.40;94.30;;;;;;5070539;28;20020;-70
2021/11/27 05:14:13;;;;;;;3.80;2.90;;;6.40;94.30;;;;;;5070263;28;20103;-71
2021/11/27 05:16:39;;;;;;;4.55;2.92;;;6.50;94.40;;;;;;5070059;28;20082;-71
2021/11/27 05:19:05;;;;;;;4.50;3.00;;;6.60;94.50;;;;;;5070321;28;20028;-71
2021/11/27 05:21:31;;;;;;;5.05;3.03;;;6.60;94.30;;;;;;5070105;28;20036;-71
2021/11/27 05:23:57;;;;;;;5.63;2.88;;;6.60;94.30;;;;;;5069327;28;20024;-71
2021/11/27 05:26:23;;;;;;;4.55;3.08;;;6.70;94.50;;;;;;5070405;28;20017;-71
2021/11/27 05:28:49;;;;;;;3.88;2.53;;;6.60;94.30;;;;;;5070050;28;20025;-71
2021/11/27 05:31:16;;;;;;;4.88;2.72;;;6.70;94.40;;;;;;5070125;28;20382;-71
2021/11/27 05:36:16;;;;;;;4.80;2.55;;;6.70;94.20;;;;;;5073408;28;20036;-71
2021/11/27 05:38:45;;;;;;;4.38;2.28;;;6.60;94.30;;;;;;5074209;28;20084;-69
2021/11/27 05:41:11;;;;;;;4.57;2.65;;;6.60;94.40;;;;;;5073466;28;20021;-71
2021/11/27 05:43:36;;;;;;;4.00;2.55;;;6.50;94.60;;;;;;5073825;28;20064;-71
2021/11/27 05:46:03;;;;;;;5.43;2.83;;;6.50;94.80;;;;;;5073468;28;20362;-71
2021/11/27 05:48:28;;;;;;;4.10;2.50;;;6.40;95.10;;;;;;5072465;28;20029;-69
2021/11/27 05:50:55;;;;;;;4.60;2.05;;;6.50;95.30;;;;;;5073177;28;20028;-71
2021/11/27 05:53:21;;;;;;;7.20;3.28;;;6.40;95.30;;;;;;5073641;28;20054;-71
2021/11/27 05:55:48;;;;;;;3.25;2.00;;;6.40;95.40;;;;;;5072149;28;20124;-71
2021/11/27 05:58:15;;;;;;;6.65;3.08;;;6.40;95.40;;;;;;5073136;28;20029;-71
2021/11/27 06:00:41;;;;;;;4.93;2.28;;;6.40;95.70;;;;;;5073117;28;20472;-71
2021/11/27 06:03:07;;;;;;;3.53;2.35;;;6.30;95.70;;;;;;5073030;28;20028;-71
2021/11/27 06:05:32;;;;;;;3.13;2.08;;;6.40;95.80;;;;;;5073448;28;20024;-70
2021/11/27 06:07:59;;;;;;;3.55;2.33;;;6.30;95.80;;;;;;5072930;28;20293;-70
2021/11/27 06:10:25;;;;;;;4.50;2.42;;;6.30;95.90;;;;;;5073162;28;20366;-70
2021/11/27 06:12:51;;;;;;;3.40;1.90;;;6.20;96.00;;;;;;5072817;28;20028;-71
2021/11/27 06:15:16;;;;;;;2.80;2.17;;;6.20;96.00;;;;;;5072866;28;20145;-71
2021/11/27 06:17:42;;;;;;;3.42;1.98;;;6.20;96.10;;;;;;5073421;28;20033;-70
2021/11/27 06:20:08;;;;;;;2.83;1.80;;;6.20;96.00;;;;;;5072650;28;20033;-71
2021/11/27 06:22:34;;;;;;;3.97;2.20;;;6.20;96.10;;;;;;5072851;28;20042;-71
2021/11/27 06:25:00;;;;;;;4.05;2.53;;;6.20;96.30;;;;;;5072563;28;20036;-71
2021/11/27 06:27:25;;;;;;;4.10;2.35;;;6.20;96.10;;;;;;5072758;28;20032;-72
2021/11/27 06:29:51;;;;;;;3.72;2.40;;;6.20;96.10;;;;;;5072829;28;20036;-71
2021/11/27 06:32:23;;;;;;;4.55;2.50;;;6.20;96.20;;;;;;5072643;28;20057;-71
2021/11/27 06:34:51;;;;;;;4.00;2.33;;;6.20;96.00;;;;;;5072561;28;20032;-71
2021/11/27 06:37:22;;;;;;;4.93;3.03;;;6.20;96.20;;;;;;5072466;28;20024;-71
2021/11/27 06:39:49;;;;;;;6.75;2.92;;;6.20;96.30;;;;;;5072462;28;20029;-71
2021/11/27 06:42:16;;;;;;;5.07;2.33;;;6.20;96.30;;;;;;5070226;28;20346;-71
2021/11/27 06:44:47;;;;;;;3.60;2.60;;;6.20;96.30;;;;;;5050934;28;20036;-70
2021/11/27 06:47:17;;;;;;;10.95;6.18;;;6.20;96.40;;;;;;5051342;28;20553;-70
2021/11/27 06:49:44;;;;;;;7.50;4.25;;;6.20;96.50;;;;;;5052717;28;20426;-71
2021/11/27 06:52:10;;;;;;;9.18;5.07;;;6.20;96.40;;;;;;5051196;28;20036;-71
2021/11/27 06:54:36;;;;;;;9.25;5.05;;;6.30;96.60;;;;;;5052388;28;20069;-71
2021/11/27 06:57:02;;;;;;;13.88;7.05;;;6.30;96.60;;;;;;5051897;28;20033;-72
2021/11/27 06:59:28;;;;;;;11.85;5.50;;;6.40;96.50;;;;;;5052997;28;20017;-71
2021/11/27 07:01:53;;;;;;;4.82;3.15;;;6.40;96.50;;;;;;5052334;28;20048;-72
2021/11/27 07:04:19;;;;;;;4.57;2.83;;;6.40;96.50;;;;;;5052278;28;20032;-75
2021/11/27 07:06:46;;;;;;;3.78;2.58;;;6.40;96.60;;;;;;5051093;28;20032;-72
2021/11/27 07:09:11;;;;;;;3.38;2.35;;;6.40;96.70;;;;;;5052113;28;20466;-72
2021/11/27 07:11:38;;;;;;;4.07;2.63;;;6.50;96.80;;;;;;5052636;28;20036;-72
2021/11/27 07:14:03;;;;;;;4.78;2.78;;;6.40;96.60;;;;;;5051570;28;20417;-71
2021/11/27 07:16:29;;;;;;;3.58;2.33;;;6.40;96.80;;;;;;5052417;28;20025;-72
2021/11/27 07:18:55;;;;;;;3.40;2.45;;;6.50;96.70;;;;;;5051890;28;20040;-72
2021/11/27 07:21:20;;;;;;;4.57;2.55;;;6.40;96.60;;;;;;5051469;28;20037;-70
2021/11/27 07:23:46;;;;;;;4.32;2.45;;;6.40;96.80;;;;;;5048979;28;20090;-71
2021/11/27 07:26:12;;;;;;;6.00;2.85;;;6.40;96.80;;;;;;5050667;28;20098;-70
2021/11/27 07:28:38;;;;;;;4.57;2.47;;;6.40;96.60;;;;;;5050531;28;20029;-72
2021/11/27 07:31:04;;;;;;;5.78;2.58;;;6.40;96.60;;;;;;5051804;28;20132;-72
2021/11/27 07:33:30;;;;;;;4.68;2.78;;;6.50;96.80;;;;;;5051757;28;20425;-71
2021/11/27 07:35:56;;;;;;;7.53;3.22;;;6.40;96.80;;;;;;5051462;28;20101;-72
2021/11/27 07:38:22;;;;;;;4.40;2.72;;;6.30;96.90;;;;;;5050572;28;20090;-71
2021/11/27 07:40:48;;;;;;;9.57;4.72;;;6.40;96.90;;;;;;5051827;28;20116;-71
2021/11/27 07:43:14;;;;;;;15.77;6.90;;;6.40;96.80;;;;;;5051684;28;20121;-71
2021/11/27 07:45:40;;;;;;;12.35;4.95;;;6.50;96.90;;;;;;5051415;28;20028;-71
2021/11/27 07:48:06;;;;;;;6.07;3.22;;;6.40;96.90;;;;;;5051340;28;20025;-71
2021/11/27 07:50:32;;;;;;;5.88;2.97;;;6.40;97.00;;;;;;5050661;28;20116;-71
2021/11/27 07:52:58;;;;;;;6.65;3.75;;;6.40;97.10;;;;;;5050961;28;20037;-71
2021/11/27 07:55:24;;;;;;;5.32;3.20;;;6.40;97.30;;;;;;5050898;28;20033;-71
2021/11/27 07:57:49;;;;;;;5.13;3.42;;;6.40;97.10;;;;;;5051386;28;20033;-71
2021/11/27 08:00:15;;;;;;;6.43;3.60;;;6.40;97.00;;;;;;5050913;28;20127;-71
2021/11/27 08:02:41;;;;;;;5.47;3.63;;;6.40;97.00;;;;;;5051688;28;20072;-71
2021/11/27 08:05:07;;;;;;;6.35;3.58;;;6.50;97.00;;;;;;5051224;28;20033;-70
2021/11/27 08:07:35;;;;;;;5.90;3.60;;;6.50;97.10;;;;;;5051063;28;20025;-71
2021/11/27 08:10:06;;;;;;;5.80;3.65;;;6.50;97.20;;;;;;5051456;28;20025;-70
2021/11/27 08:12:32;;;;;;;8.52;4.00;;;6.50;97.10;;;;;;5051098;28;20029;-72
2021/11/27 08:14:57;;;;;;;6.93;4.32;;;6.50;97.20;;;;;;5050960;28;20036;-71
2021/11/27 08:17:23;;;;;;;7.00;3.85;;;6.50;97.10;;;;;;5050558;28;20028;-71
2021/11/27 08:19:49;;;;;;;8.95;3.60;;;6.50;97.20;;;;;;5050597;28;20021;-70
2021/11/27 08:22:14;;;;;;;9.23;4.20;;;6.50;97.40;;;;;;5050619;28;20071;-72
2021/11/27 08:24:40;;;;;;;6.20;3.60;;;6.50;97.30;;;;;;5050712;28;20474;-72
2021/11/27 08:27:06;;;;;;;7.65;3.97;;;6.60;97.30;;;;;;5049587;28;20478;-71
2021/11/27 08:29:31;;;;;;;10.32;3.95;;;6.60;97.40;;;;;;5051064;28;20117;-70
2021/11/27 08:31:57;;;;;;;7.20;4.28;;;6.70;97.50;;;;;;5050552;28;20080;-71
2021/11/27 08:34:24;;;;;;;13.63;4.47;;;6.80;97.50;;;;;;5050586;28;20056;-71
2021/11/27 08:36:49;;;;;;;8.23;4.13;;;6.80;97.40;;;;;;5050700;28;20037;-71
2021/11/27 08:39:15;;;;;;;7.45;3.42;;;6.80;97.40;;;;;;5050774;28;20069;-72
2021/11/27 08:41:42;;;;;;;7.78;3.65;;;6.80;97.30;;;;;;5050283;28;20017;-72
2021/11/27 08:44:08;;;;;;;6.85;3.97;;;6.90;97.40;;;;;;5050611;28;20354;-72
2021/11/27 08:46:34;;;;;;;6.85;3.65;;;7.00;97.30;;;;;;5050445;28;20120;-72
2021/11/27 08:49:00;;;;;;;7.63;3.75;;;6.90;97.20;;;;;;5050530;28;20032;-72
2021/11/27 08:51:26;;;;;;;7.57;4.22;;;6.90;97.20;;;;;;5050254;28;20051;-72
2021/11/27 08:53:52;;;;;;;8.13;4.20;;;7.00;97.30;;;;;;5050253;28;20025;-71
2021/11/27 08:56:19;;;;;;;5.75;3.70;;;7.00;97.20;;;;;;5050688;28;20075;-71
2021/11/27 08:58:45;;;;;;;12.30;5.20;;;7.10;97.20;;;;;;5050544;28;20159;-71
2021/11/27 09:01:12;;;;;;;13.48;7.38;;;7.10;97.10;;;;;;5050143;28;20492;-72
2021/11/27 09:03:39;;;;;;;5.95;3.80;;;7.10;97.20;;;;;;5050515;28;20033;-71
2021/11/27 09:06:04;;;;;;;6.78;4.20;;;7.20;97.30;;;;;;5050251;28;20098;-71
2021/11/27 09:08:30;;;;;;;6.80;3.63;;;7.20;97.20;;;;;;5053765;28;20406;-71
2021/11/27 09:10:56;;;;;;;7.97;4.43;;;7.20;97.20;;;;;;5054310;28;20029;-72
2021/11/27 09:13:22;;;;;;;7.72;4.47;;;7.20;97.30;;;;;;5052714;28;20342;-71
2021/11/27 09:15:48;;;;;;;7.25;3.83;;;7.20;97.40;;;;;;5053832;28;20045;-70
2021/11/27 09:18:14;;;;;;;9.23;4.57;;;7.30;97.60;;;;;;5053851;28;20474;-70
2021/11/27 09:20:40;;;;;;;6.65;4.03;;;7.30;97.30;;;;;;5054310;28;20446;-70
2021/11/27 09:23:07;;;;;;;7.40;3.88;;;7.30;97.30;;;;;;5053830;28;20473;-71
2021/11/27 09:25:33;;;;;;;8.00;4.15;;;7.20;97.00;;;;;;5053642;28;20354;-71
2021/11/27 09:28:00;;;;;;;7.05;4.10;;;7.40;97.30;;;;;;5053707;28;20037;-70
2021/11/27 09:30:28;;;;;;;6.90;4.18;;;7.40;97.10;;;;;;5053081;28;20029;-71
2021/11/27 09:32:55;;;;;;;6.30;3.65;;;7.40;96.80;;;;;;5053458;28;20021;-72
2021/11/27 09:35:21;;;;;;;6.95;4.25;;;7.30;96.60;;;;;;5053846;28;20451;-72
2021/11/27 09:37:48;;;;;;;8.95;5.10;;;7.40;96.70;;;;;;5053922;28;20037;-71
2021/11/27 09:40:14;;;;;;;7.00;3.85;;;7.40;96.50;;;;;;5053422;28;20457;-72
2021/11/27 09:42:41;;;;;;;5.07;3.60;;;7.40;96.50;;;;;;5053325;28;20049;-71
2021/11/27 09:45:08;;;;;;;5.97;3.83;;;7.30;96.70;;;;;;5053261;28;20188;-71
2021/11/27 09:47:36;;;;;;;5.70;3.58;;;7.40;96.70;;;;;;5053756;28;20017;-71
2021/11/27 09:50:05;;;;;;;6.75;3.22;;;7.40;96.60;;;;;;5053532;28;20118;-71
2021/11/27 09:52:31;;;;;;;4.78;3.33;;;7.40;96.60;;;;;;5053326;28;20040;-71
2021/11/27 09:54:57;;;;;;;6.43;3.45;;;7.30;96.60;;;;;;5053036;28;20041;-72
2021/11/27 09:57:24;;;;;;;5.18;3.25;;;7.30;96.50;;;;;;5053038;28;20454;-71
2021/11/27 09:59:50;;;;;;;6.80;3.45;;;7.20;96.60;;;;;;5053508;28;20392;-72
2021/11/27 10:02:20;;;;;;;5.22;3.22;;;7.20;96.70;;;;;;5053133;28;20116;-70
2021/11/27 10:04:54;;;;;;;5.40;3.60;;;7.30;96.80;;;;;;5052934;28;20029;-70
2021/11/27 10:07:21;;;;;;;5.90;3.42;;;7.30;96.70;;;;;;5053359;28;20048;-71
2021/11/27 10:09:50;;;;;;;5.65;3.35;;;7.30;96.60;;;;;;5053149;28;20040;-71
2021/11/27 10:12:16;;;;;;;3.88;2.80;;;7.30;96.70;;;;;;5052836;28;20036;-71
2021/11/27 10:14:42;;;;;;;5.15;3.38;;;7.40;96.70;;;;;;5053082;28;20025;-72
2021/11/27 10:17:10;;;;;;;5.70;3.42;;;7.30;96.60;;;;;;5052498;28;20106;-70
2021/11/27 10:19:42;;;;;;;5.65;3.30;;;7.40;96.70;;;;;;5052613;28;20808;-72
2021/11/27 10:22:10;;;;;;;4.95;3.20;;;7.50;96.80;;;;;;5052652;28;20037;-72
2021/11/27 10:24:54;;;;;;;7.40;3.65;;;7.50;96.70;;;;;;5052852;28;20033;-71
2021/11/27 10:27:26;;;;;;;5.78;3.78;;;7.50;96.70;;;;;;5052537;28;20268;-71
2021/11/27 10:30:00;;;;;;;5.25;3.10;;;7.60;96.70;;;;;;5052458;28;20451;-70
2021/11/27 10:32:37;;;;;;;6.20;4.18;;;7.50;96.50;;;;;;5052775;28;20052;-71
2021/11/27 10:35:07;;;;;;;4.90;3.47;;;7.50;96.40;;;;;;5052444;28;20040;-71
2021/11/27 10:37:41;;;;;;;5.53;3.08;;;7.60;96.40;;;;;;5052438;28;20025;-72
2021/11/27 10:40:13;;;;;;;3.33;2.58;;;7.50;96.00;;;;;;5052320;28;20025;-71
2021/11/27 10:42:45;;;;;;;4.32;2.72;;;7.40;96.10;;;;;;5052464;28;20343;-70
2021/11/27 10:45:19;;;;;;;2.85;2.40;;;7.40;95.90;;;;;;5052271;28;20521;-71
2021/11/27 10:47:47;;;;;;;3.17;2.15;;;7.40;95.80;;;;;;5052365;28;20195;-71
2021/11/27 10:50:19;;;;;;;3.35;2.40;;;7.40;95.90;;;;;;5052226;28;20528;-70
2021/11/27 10:52:49;;;;;;;6.75;2.40;;;7.40;95.90;;;;;;5051728;28;20127;-70
2021/11/27 10:55:21;;;;;;;5.55;2.20;;;7.30;96.00;;;;;;5051161;28;20115;-70
2021/11/27 10:57:48;;;;;;;4.88;2.80;;;7.40;96.00;;;;;;5052022;28;20033;-71
2021/11/27 11:00:43;;;;;;;4.07;2.80;;;7.30;95.90;;;;;;5051722;28;20102;-70
2021/11/27 11:03:31;;;;;;;4.55;2.40;;;7.30;96.00;;;;;;5051864;28;20025;-71
2021/11/27 11:06:01;;;;;;;5.30;2.88;;;7.40;95.90;;;;;;5051656;28;20116;-71
2021/11/27 11:08:38;;;;;;;3.47;2.40;;;7.40;95.80;;;;;;5052063;28;20478;-70
2021/11/27 11:11:24;;;;;;;4.80;2.75;;;7.40;95.80;;;;;;5051269;28;20421;-71
2021/11/27 11:13:54;;;;;;;4.40;2.67;;;7.50;95.90;;;;;;5051581;28;20044;-71
2021/11/27 11:16:26;;;;;;;4.85;2.85;;;7.50;95.50;;;;;;5051700;28;20051;-71
2021/11/27 11:19:10;;;;;;;3.70;2.75;;;7.60;95.80;;;;;;5051611;28;20033;-71
2021/11/27 11:21:35;;;;;;;4.43;2.60;;;7.40;95.30;;;;;;5051795;28;20036;-72
2021/11/27 11:24:22;;;;;;;3.92;2.42;;;7.50;95.50;;;;;;5051624;28;20021;-70
2021/11/27 11:26:55;;;;;;;4.80;2.67;;;7.60;95.50;;;;;;5052131;28;20048;-72
2021/11/27 11:29:20;;;;;;;3.97;2.63;;;7.60;95.50;;;;;;5051043;28;20040;-71
2021/11/27 11:31:46;;;;;;;4.38;2.60;;;7.60;95.60;;;;;;5051199;28;20052;-72
2021/11/27 11:34:12;;;;;;;3.25;2.40;;;7.70;95.50;;;;;;5051240;28;20040;-71
2021/11/27 11:36:37;;;;;;;3.47;2.22;;;7.60;95.00;;;;;;5051294;28;20435;-71
2021/11/27 11:39:03;;;;;;;4.95;2.50;;;7.60;94.90;;;;;;5051275;28;20025;-71
2021/11/27 11:41:29;;;;;;;3.97;2.50;;;7.60;94.90;;;;;;5051336;28;20074;-72
2021/11/27 11:43:56;;;;;;;4.82;2.58;;;7.70;94.80;;;;;;5051036;28;20415;-70
2021/11/27 11:46:23;;;;;;;4.22;2.25;;;7.70;94.70;;;;;;5051020;28;20036;-71
2021/11/27 11:48:52;;;;;;;4.32;2.85;;;7.60;94.80;;;;;;5051262;28;20090;-70
2021/11/27 11:51:51;;;;;;;4.63;2.95;;;7.60;94.80;;;;;;5049963;28;20092;-71
2021/11/27 11:54:18;;;;;;;5.53;3.28;;;7.70;94.70;;;;;;5049765;28;20123;-71
2021/11/27 11:56:44;;;;;;;4.78;3.00;;;7.80;94.60;;;;;;5050675;28;20112;-71
2021/11/27 11:59:22;;;;;;;5.85;2.95;;;7.80;94.20;;;;;;5049556;28;20048;-72
2021/11/27 12:02:16;;;;;;;4.38;2.97;;;7.70;94.10;;;;;;5050905;28;20024;-72
2021/11/27 12:05:15;;;;;;;5.13;3.58;;;7.80;93.90;;;;;;5050646;28;20047;-70
2021/11/27 12:10:25;;;;;;;7.82;3.67;;;7.90;93.70;;;;;;5050591;28;20037;-70
2021/11/27 12:13:09;;;;;;;5.95;3.17;;;7.90;93.50;;;;;;5050194;28;20029;-71
2021/11/27 12:15:39;;;;;;;8.07;3.80;;;8.00;93.70;;;;;;5050223;28;20037;-70
2021/11/27 12:18:16;;;;;;;18.67;10.45;;;8.10;94.00;;;;;;5050408;28;20055;-71
2021/11/27 12:20:47;;;;;;;6.32;3.70;;;8.20;93.70;;;;;;5049472;28;20029;-70
2021/11/27 12:23:42;;;;;;;3.95;2.80;;;8.10;93.40;;;;;;5050422;28;20029;-71
2021/11/27 12:26:08;;;;;;;3.85;2.95;;;8.00;93.20;;;;;;5050552;28;20033;-71
2021/11/27 12:28:35;;;;;;;5.22;3.17;;;7.90;92.80;;;;;;5050461;28;20108;-71
2021/11/27 12:31:08;;;;;;;5.63;3.45;;;7.90;93.00;;;;;;5050593;28;20536;-71
2021/11/27 12:33:53;;;;;;;5.80;3.85;;;8.00;93.00;;;;;;5050170;28;20029;-71
2021/11/27 12:36:25;;;;;;;4.90;3.33;;;8.00;92.80;;;;;;5050214;28;20047;-71
2021/11/27 12:39:12;;;;;;;4.38;3.25;;;7.90;92.90;;;;;;5050885;28;20025;-71
2021/11/27 12:41:40;;;;;;;8.23;3.72;;;7.80;92.80;;;;;;5050648;28;20030;-70
2021/11/27 12:44:18;;;;;;;5.38;3.40;;;7.90;92.80;;;;;;5054385;28;20108;-71
2021/11/27 12:46:51;;;;;;;6.80;3.65;;;8.00;93.00;;;;;;5053491;28;20039;-71
2021/11/27 12:49:32;;;;;;;11.00;4.20;;;8.00;93.00;;;;;;5054721;28;20041;-71
2021/11/27 12:52:19;;;;;;;7.80;4.20;;;8.00;93.10;;;;;;5054222;28;20055;-71
2021/11/27 12:54:46;;;;;;;6.32;4.00;;;8.00;93.00;;;;;;5052945;28;20315;-71
2021/11/27 12:57:18;;;;;;;7.43;4.63;;;7.90;92.50;;;;;;5054047;28;21063;-71
2021/11/27 12:59:45;;;;;;;8.57;5.20;;;7.90;92.40;;;;;;5053378;28;20025;-71
2021/11/27 13:02:18;;;;;;;9.70;5.25;;;7.90;92.70;;;;;;5054127;28;20021;-71
2021/11/27 13:04:45;;;;;;;7.57;4.70;;;7.90;92.40;;;;;;5054208;28;20033;-71